createdAt,value
2023-05-15T00:02:03.152Z,11.35
2023-05-15T00:07:07.286Z,11.41
2023-05-15T00:12:11.494Z,11.42
2023-05-15T00:17:15.618Z,11.33
2023-05-15T00:22:19.797Z,11.33
2023-05-15T00:27:23.973Z,11.28
2023-05-15T00:32:28.109Z,11.16
2023-05-15T00:37:32.257Z,11.07
2023-05-15T00:42:36.410Z,10.96
2023-05-15T00:47:40.631Z,10.86
2023-05-15T00:52:44.768Z,10.89
2023-05-15T00:57:48.935Z,10.87
2023-05-15T01:02:53.130Z,10.86
2023-05-15T01:07:57.225Z,10.77
2023-05-15T01:13:01.369Z,10.72
2023-05-15T01:18:05.744Z,10.69
2023-05-15T01:23:09.711Z,10.61
2023-05-15T01:28:13.866Z,10.55
2023-05-15T01:33:18.044Z,10.64
2023-05-15T01:38:22.180Z,10.55
2023-05-15T01:43:26.375Z,10.51
2023-05-15T01:48:30.536Z,10.38
2023-05-15T01:53:34.739Z,10.42
2023-05-15T01:58:38.831Z,10.43
2023-05-15T02:03:43.102Z,10.35
2023-05-15T02:08:47.181Z,10.27
2023-05-15T02:13:51.343Z,10.24
2023-05-15T02:18:55.557Z,10.14
2023-05-15T02:23:59.656Z,10.00
2023-05-15T02:29:03.792Z,9.98
2023-05-15T02:34:07.995Z,9.99
2023-05-15T02:39:10.224Z,9.80
2023-05-15T02:44:14.411Z,9.82
2023-05-15T02:49:18.583Z,9.74
2023-05-15T02:54:22.986Z,9.65
2023-05-15T02:59:26.888Z,9.61
2023-05-15T03:04:31.093Z,9.63
2023-05-15T03:09:33.436Z,9.95
2023-05-15T03:19:41.617Z,10.28
2023-05-15T03:24:45.797Z,10.38
2023-05-15T03:29:49.963Z,10.51
2023-05-15T03:34:54.126Z,10.68
2023-05-15T03:39:58.252Z,10.92
2023-05-15T03:45:02.461Z,11.16
2023-05-15T03:50:06.595Z,11.31
2023-05-15T03:55:10.804Z,11.42
2023-05-15T04:00:15.942Z,11.49
2023-05-15T04:05:19.122Z,11.55
2023-05-15T04:10:23.345Z,11.62
2023-05-15T04:15:27.646Z,11.67
2023-05-15T04:20:31.597Z,11.74
2023-05-15T04:25:35.731Z,11.85
2023-05-15T04:30:39.899Z,11.93
2023-05-15T04:35:44.035Z,12.00
2023-05-15T04:40:48.242Z,12.08
2023-05-15T04:45:52.402Z,12.18
2023-05-15T04:50:56.502Z,12.23
2023-05-15T04:56:00.707Z,12.30
2023-05-15T05:01:04.964Z,12.36
2023-05-15T05:06:09.002Z,12.38
2023-05-15T05:11:13.176Z,12.39
2023-05-15T05:16:17.382Z,12.43
2023-05-15T05:21:21.518Z,12.48
2023-05-15T05:26:25.646Z,12.53
2023-05-15T05:31:29.909Z,12.60
2023-05-15T05:36:33.967Z,12.59
2023-05-15T05:41:38.158Z,12.56
2023-05-15T05:46:42.337Z,12.61
2023-05-15T05:51:46.499Z,12.63
2023-05-15T05:56:50.628Z,12.72
2023-05-15T06:01:54.869Z,12.71
2023-05-15T06:06:58.970Z,12.71
2023-05-15T06:12:03.102Z,12.79
2023-05-15T06:17:07.314Z,12.93
2023-05-15T06:22:11.439Z,13.09
2023-05-15T06:27:15.577Z,13.23
2023-05-15T06:32:19.735Z,13.21
2023-05-15T06:37:23.942Z,13.19
2023-05-15T06:42:28.103Z,13.36
2023-05-15T06:47:32.311Z,13.50
2023-05-15T06:52:36.396Z,13.58
2023-05-15T06:57:40.563Z,13.83
2023-05-15T07:02:44.757Z,13.95
2023-05-15T07:07:48.880Z,13.98
2023-05-15T07:12:53.011Z,14.18
2023-05-15T07:17:57.320Z,14.43
2023-05-15T07:23:01.350Z,14.20
2023-05-15T07:28:05.545Z,14.09
2023-05-15T07:33:09.691Z,13.97
2023-05-15T07:38:13.871Z,13.90
2023-05-15T07:43:17.997Z,13.83
2023-05-15T07:48:22.150Z,13.94
2023-05-15T07:53:26.328Z,14.00
2023-05-15T07:58:30.469Z,13.95
2023-05-15T08:03:34.748Z,14.04
2023-05-15T08:08:38.825Z,14.27
2023-05-15T08:13:43.001Z,14.47
2023-05-15T08:18:47.151Z,14.77
2023-05-15T08:23:53.671Z,15.10
2023-05-15T08:28:55.443Z,15.28
2023-05-15T08:33:59.574Z,15.43
2023-05-15T08:39:01.843Z,15.56
2023-05-15T08:44:06.049Z,15.77
2023-05-15T08:49:10.180Z,15.58
2023-05-15T08:54:14.349Z,15.73
2023-05-15T08:59:18.527Z,15.83
2023-05-15T09:04:22.644Z,15.88
2023-05-15T09:09:26.851Z,16.06
2023-05-15T09:14:30.979Z,16.41
2023-05-15T09:19:35.122Z,16.72
2023-05-15T09:24:39.264Z,17.15
2023-05-15T09:29:43.452Z,17.17
2023-05-15T09:34:47.607Z,17.62
2023-05-15T09:39:51.755Z,17.69
2023-05-15T09:44:55.949Z,17.53
2023-05-15T09:50:00.101Z,17.35
2023-05-15T09:55:04.234Z,17.40
2023-05-15T10:00:08.422Z,17.39
2023-05-15T10:05:12.607Z,17.45
2023-05-15T10:10:16.757Z,17.62
2023-05-15T10:15:20.898Z,17.74
2023-05-15T10:20:25.254Z,17.74
2023-05-15T10:25:29.194Z,18.00
2023-05-15T10:30:33.374Z,18.18
2023-05-15T10:35:37.529Z,18.34
2023-05-15T10:40:41.703Z,18.38
2023-05-15T10:45:45.869Z,18.33
2023-05-15T10:50:50.003Z,18.47
2023-05-15T10:55:54.210Z,18.58
2023-05-15T11:06:02.477Z,19.00
2023-05-15T11:11:06.625Z,19.17
2023-05-15T11:16:12.068Z,19.30
2023-05-15T11:21:14.927Z,19.26
2023-05-15T11:26:19.117Z,19.28
2023-05-15T11:31:23.275Z,19.34
2023-05-15T11:36:27.416Z,19.29
2023-05-15T11:41:31.646Z,19.56
2023-05-15T11:46:35.748Z,19.88
2023-05-15T11:51:39.922Z,19.86
2023-05-15T11:56:44.073Z,20.07
2023-05-15T12:01:48.237Z,19.98
2023-05-15T12:06:52.393Z,20.36
2023-05-15T12:11:56.564Z,20.63
2023-05-15T12:17:00.856Z,20.82
2023-05-15T12:22:04.861Z,20.85
2023-05-15T12:27:09.011Z,20.57
2023-05-15T12:32:13.235Z,20.29
2023-05-15T12:37:17.332Z,19.75
2023-05-15T12:42:21.525Z,20.10
2023-05-15T12:47:25.685Z,20.32
2023-05-15T12:52:29.831Z,20.66
2023-05-15T12:57:33.962Z,21.01
2023-05-15T13:02:38.240Z,20.81
2023-05-15T13:07:42.312Z,20.88
2023-05-15T13:12:46.448Z,21.08
2023-05-15T13:17:50.688Z,21.30
2023-05-15T13:22:54.747Z,21.45
2023-05-15T13:27:58.920Z,21.66
2023-05-15T13:33:03.103Z,21.81
2023-05-15T13:38:09.468Z,21.55
2023-05-15T13:43:11.409Z,21.97
2023-05-15T13:48:15.577Z,22.14
2023-05-15T13:53:19.705Z,22.20
2023-05-15T13:58:23.919Z,21.61
2023-05-15T14:03:28.162Z,22.06
2023-05-15T14:08:30.285Z,22.19
2023-05-15T14:13:34.460Z,22.45
2023-05-15T14:18:38.696Z,22.36
2023-05-15T14:23:42.774Z,22.53
2023-05-15T14:28:46.907Z,22.47
2023-05-15T14:33:52.431Z,22.16
2023-05-15T14:38:55.252Z,21.02
2023-05-15T14:43:59.429Z,20.73
2023-05-15T14:49:03.585Z,20.51
2023-05-15T14:54:07.709Z,20.43
2023-05-15T14:59:11.914Z,20.02
2023-05-15T15:04:16.114Z,19.55
2023-05-15T15:09:21.441Z,19.43
2023-05-15T15:14:24.359Z,19.81
2023-05-15T15:19:28.573Z,20.51
2023-05-15T15:24:32.647Z,20.97
2023-05-15T15:29:36.846Z,21.11
2023-05-15T15:34:40.998Z,20.86
2023-05-15T15:39:45.194Z,20.46
2023-05-15T15:44:49.329Z,20.09
2023-05-15T15:49:53.510Z,19.76
2023-05-15T15:54:57.693Z,19.24
2023-05-15T16:00:01.907Z,19.26
2023-05-15T16:05:05.977Z,19.09
2023-05-15T16:10:12.823Z,19.39
2023-05-15T16:15:22.722Z,19.50
2023-05-15T16:20:18.425Z,19.34
2023-05-15T16:25:22.591Z,19.13
2023-05-15T16:30:40.123Z,19.20
2023-05-15T16:35:30.938Z,21.80
2023-05-15T16:40:35.070Z,21.42
2023-05-15T16:45:39.244Z,20.85
2023-05-15T16:50:43.398Z,20.34
2023-05-15T16:55:47.565Z,19.65
2023-05-15T17:00:51.679Z,19.19
2023-05-15T17:05:55.879Z,18.95
2023-05-15T17:11:00.067Z,18.54
2023-05-15T17:16:04.248Z,18.47
2023-05-15T17:21:08.334Z,18.24
2023-05-15T17:26:12.509Z,18.08
2023-05-15T17:31:16.652Z,17.88
2023-05-15T17:36:20.826Z,17.58
2023-05-15T17:41:25.000Z,17.27
2023-05-15T17:46:29.231Z,17.01
2023-05-15T17:51:33.312Z,16.91
2023-05-15T17:56:37.438Z,16.76
2023-05-15T18:01:41.735Z,16.61
2023-05-15T18:06:45.785Z,16.46
2023-05-15T18:11:49.941Z,16.30
2023-05-15T18:16:54.115Z,16.07
2023-05-15T18:21:58.264Z,15.91
2023-05-15T18:27:02.464Z,15.77
2023-05-15T18:32:06.630Z,15.60
2023-05-15T18:37:10.761Z,15.39
2023-05-15T18:42:14.881Z,15.22
2023-05-15T18:47:19.052Z,15.17
2023-05-15T18:52:23.211Z,15.03
2023-05-15T18:57:27.407Z,14.92
2023-05-15T19:02:31.612Z,14.81
2023-05-15T19:07:35.726Z,14.65
2023-05-15T19:12:39.827Z,14.53
2023-05-15T19:17:44.030Z,14.39
2023-05-15T19:22:48.173Z,14.32
2023-05-15T19:27:52.364Z,14.24
2023-05-15T19:32:56.587Z,14.12
2023-05-15T19:37:59.893Z,14.02
2023-05-15T19:43:04.037Z,13.95
2023-05-15T19:48:08.295Z,13.93
2023-05-15T19:53:12.392Z,13.87
2023-05-15T19:58:16.497Z,13.79
2023-05-15T20:03:20.807Z,13.74
2023-05-15T20:08:22.951Z,13.68
2023-05-15T20:13:27.127Z,13.69
2023-05-15T20:18:34.463Z,13.63
2023-05-15T20:23:35.392Z,13.54
2023-05-15T20:28:39.548Z,13.47
2023-05-15T20:33:43.748Z,13.44
2023-05-15T20:38:47.876Z,13.41
2023-05-15T20:43:52.080Z,13.37
2023-05-15T20:48:56.221Z,13.38
2023-05-15T20:54:00.414Z,13.35
2023-05-15T20:59:04.506Z,13.36
2023-05-15T21:04:08.799Z,13.33
2023-05-15T21:09:12.851Z,13.28
2023-05-15T21:14:17.020Z,13.28
2023-05-15T21:19:21.276Z,13.28
2023-05-15T21:24:25.337Z,13.23
2023-05-15T21:29:29.515Z,13.20
2023-05-15T21:34:33.657Z,13.15
2023-05-15T21:39:37.801Z,13.11
2023-05-15T21:44:41.956Z,13.06
2023-05-15T21:49:46.141Z,12.97
2023-05-15T21:54:50.282Z,13.00
2023-05-15T21:59:54.503Z,12.96
2023-05-15T22:04:58.603Z,12.95
2023-05-15T22:10:02.770Z,12.94
2023-05-15T22:15:06.942Z,12.92
2023-05-15T22:20:11.073Z,12.90
2023-05-15T22:25:15.281Z,12.88
2023-05-15T22:30:19.411Z,12.85
2023-05-15T22:35:23.592Z,12.84
2023-05-15T22:40:27.919Z,12.79
2023-05-15T22:45:31.923Z,12.72
2023-05-15T22:50:36.037Z,12.66
2023-05-15T22:55:40.164Z,12.66
2023-05-15T23:00:44.403Z,12.51
2023-05-15T23:05:48.508Z,12.43
2023-05-15T23:10:52.756Z,12.39
2023-05-15T23:15:56.900Z,12.26
2023-05-15T23:21:01.032Z,12.16
2023-05-15T23:26:05.163Z,12.01
2023-05-15T23:31:09.365Z,11.88
2023-05-15T23:36:13.476Z,11.71
2023-05-15T23:41:17.662Z,11.51
2023-05-15T23:46:21.784Z,11.32
2023-05-15T23:51:25.981Z,11.23
2023-05-15T23:56:30.109Z,11.08
